sensor_id;sensor_type;location;lat;lon;timestamp;P1;durP1;ratioP1;P2;durP2;ratioP2
9918;SDS011;4998;51.024;13.828;2023-08-24T00:01:23;2.70;;;2.50;;
9918;SDS011;4998;51.024;13.828;2023-08-24T00:03:51;2.90;;;2.40;;
9918;SDS011;4998;51.024;13.828;2023-08-24T00:06:18;6.00;;;3.27;;
9918;SDS011;4998;51.024;13.828;2023-08-24T00:08:45;4.93;;;2.70;;
9918;SDS011;4998;51.024;13.828;2023-08-24T00:11:12;2.90;;;2.70;;
9918;SDS011;4998;51.024;13.828;2023-08-24T00:13:40;2.83;;;2.30;;
9918;SDS011;4998;51.024;13.828;2023-08-24T00:16:11;4.00;;;2.30;;
9918;SDS011;4998;51.024;13.828;2023-08-24T00:18:39;2.90;;;2.63;;
9918;SDS011;4998;51.024;13.828;2023-08-24T00:21:07;2.67;;;2.40;;
9918;SDS011;4998;51.024;13.828;2023-08-24T00:23:34;5.10;;;2.97;;
9918;SDS011;4998;51.024;13.828;2023-08-24T00:26:01;3.20;;;2.77;;
9918;SDS011;4998;51.024;13.828;2023-08-24T00:28:28;2.80;;;2.60;;
9918;SDS011;4998;51.024;13.828;2023-08-24T00:30:55;3.10;;;2.90;;
9918;SDS011;4998;51.024;13.828;2023-08-24T00:33:22;3.97;;;2.80;;
9918;SDS011;4998;51.024;13.828;2023-08-24T00:35:49;3.37;;;2.50;;
9918;SDS011;4998;51.024;13.828;2023-08-24T00:38:17;3.53;;;2.30;;
9918;SDS011;4998;51.024;13.828;2023-08-24T00:40:44;3.20;;;2.90;;
9918;SDS011;4998;51.024;13.828;2023-08-24T00:43:13;3.30;;;3.00;;
9918;SDS011;4998;51.024;13.828;2023-08-24T00:45:40;3.17;;;2.87;;
9918;SDS011;4998;51.024;13.828;2023-08-24T00:48:07;6.10;;;2.90;;
9918;SDS011;4998;51.024;13.828;2023-08-24T00:50:34;3.23;;;2.93;;
9918;SDS011;4998;51.024;13.828;2023-08-24T00:53:01;3.20;;;2.87;;
9918;SDS011;4998;51.024;13.828;2023-08-24T00:55:30;3.13;;;2.93;;
9918;SDS011;4998;51.024;13.828;2023-08-24T00:57:58;3.13;;;2.80;;
9918;SDS011;4998;51.024;13.828;2023-08-24T01:00:25;4.73;;;3.00;;
9918;SDS011;4998;51.024;13.828;2023-08-24T01:02:53;3.33;;;2.67;;
9918;SDS011;4998;51.024;13.828;2023-08-24T01:05:20;3.50;;;2.87;;
9918;SDS011;4998;51.024;13.828;2023-08-24T01:07:47;2.80;;;2.60;;
9918;SDS011;4998;51.024;13.828;2023-08-24T01:10:14;2.93;;;2.67;;
9918;SDS011;4998;51.024;13.828;2023-08-24T01:12:50;3.97;;;2.93;;
9918;SDS011;4998;51.024;13.828;2023-08-24T01:15:27;3.03;;;2.80;;
9918;SDS011;4998;51.024;13.828;2023-08-24T01:18:01;2.80;;;2.60;;
9918;SDS011;4998;51.024;13.828;2023-08-24T01:20:32;2.90;;;2.60;;
9918;SDS011;4998;51.024;13.828;2023-08-24T01:23:04;2.93;;;2.73;;
9918;SDS011;4998;51.024;13.828;2023-08-24T01:25:42;3.80;;;2.70;;
9918;SDS011;4998;51.024;13.828;2023-08-24T01:28:15;3.07;;;2.87;;
9918;SDS011;4998;51.024;13.828;2023-08-24T01:30:43;3.57;;;3.00;;
9918;SDS011;4998;51.024;13.828;2023-08-24T01:33:11;3.37;;;2.50;;
9918;SDS011;4998;51.024;13.828;2023-08-24T01:35:39;2.70;;;2.60;;
9918;SDS011;4998;51.024;13.828;2023-08-24T01:38:06;4.00;;;2.70;;
9918;SDS011;4998;51.024;13.828;2023-08-24T01:40:39;4.23;;;3.03;;
9918;SDS011;4998;51.024;13.828;2023-08-24T01:43:12;2.90;;;2.70;;
9918;SDS011;4998;51.024;13.828;2023-08-24T01:45:41;4.47;;;2.90;;
9918;SDS011;4998;51.024;13.828;2023-08-24T01:48:10;2.80;;;2.60;;
9918;SDS011;4998;51.024;13.828;2023-08-24T01:50:39;2.90;;;2.70;;
9918;SDS011;4998;51.024;13.828;2023-08-24T01:53:07;4.00;;;3.07;;
9918;SDS011;4998;51.024;13.828;2023-08-24T01:55:34;3.60;;;2.80;;
9918;SDS011;4998;51.024;13.828;2023-08-24T01:58:01;3.73;;;3.27;;
9918;SDS011;4998;51.024;13.828;2023-08-24T02:00:28;3.70;;;3.10;;
9918;SDS011;4998;51.024;13.828;2023-08-24T02:02:57;3.40;;;3.10;;
9918;SDS011;4998;51.024;13.828;2023-08-24T02:05:24;4.00;;;3.50;;
9918;SDS011;4998;51.024;13.828;2023-08-24T02:07:52;5.50;;;2.80;;
9918;SDS011;4998;51.024;13.828;2023-08-24T02:10:20;5.37;;;3.40;;
9918;SDS011;4998;51.024;13.828;2023-08-24T02:12:47;3.53;;;3.03;;
9918;SDS011;4998;51.024;13.828;2023-08-24T02:15:14;2.93;;;2.73;;
9918;SDS011;4998;51.024;13.828;2023-08-24T02:17:41;3.30;;;3.00;;
9918;SDS011;4998;51.024;13.828;2023-08-24T02:20:10;3.03;;;2.83;;
9918;SDS011;4998;51.024;13.828;2023-08-24T02:22:37;3.10;;;2.90;;
9918;SDS011;4998;51.024;13.828;2023-08-24T02:25:05;3.37;;;3.07;;
9918;SDS011;4998;51.024;13.828;2023-08-24T02:27:32;4.03;;;3.50;;
9918;SDS011;4998;51.024;13.828;2023-08-24T02:29:59;3.37;;;3.07;;
9918;SDS011;4998;51.024;13.828;2023-08-24T02:32:27;2.60;;;2.50;;
9918;SDS011;4998;51.024;13.828;2023-08-24T02:34:53;3.20;;;3.00;;
9918;SDS011;4998;51.024;13.828;2023-08-24T02:37:22;5.83;;;3.00;;
9918;SDS011;4998;51.024;13.828;2023-08-24T02:39:49;3.60;;;3.30;;
9918;SDS011;4998;51.024;13.828;2023-08-24T02:42:16;3.60;;;3.13;;
9918;SDS011;4998;51.024;13.828;2023-08-24T02:44:43;13.90;;;4.00;;
9918;SDS011;4998;51.024;13.828;2023-08-24T02:47:10;4.07;;;3.10;;
9918;SDS011;4998;51.024;13.828;2023-08-24T02:49:37;3.40;;;3.10;;
9918;SDS011;4998;51.024;13.828;2023-08-24T02:52:04;5.63;;;3.00;;
9918;SDS011;4998;51.024;13.828;2023-08-24T02:54:32;3.50;;;3.10;;
9918;SDS011;4998;51.024;13.828;2023-08-24T02:56:59;3.20;;;2.90;;
9918;SDS011;4998;51.024;13.828;2023-08-24T02:59:26;3.13;;;2.83;;
9918;SDS011;4998;51.024;13.828;2023-08-24T03:01:53;3.00;;;2.80;;
9918;SDS011;4998;51.024;13.828;2023-08-24T03:04:20;3.70;;;3.47;;
9918;SDS011;4998;51.024;13.828;2023-08-24T03:06:47;3.30;;;3.10;;
9918;SDS011;4998;51.024;13.828;2023-08-24T03:09:14;3.50;;;3.20;;
9918;SDS011;4998;51.024;13.828;2023-08-24T03:11:43;4.50;;;3.57;;
9918;SDS011;4998;51.024;13.828;2023-08-24T03:14:10;4.50;;;3.20;;
9918;SDS011;4998;51.024;13.828;2023-08-24T03:16:37;3.57;;;3.07;;
9918;SDS011;4998;51.024;13.828;2023-08-24T03:19:04;3.37;;;3.13;;
9918;SDS011;4998;51.024;13.828;2023-08-24T03:21:31;3.40;;;3.10;;
9918;SDS011;4998;51.024;13.828;2023-08-24T03:23:58;3.63;;;3.33;;
9918;SDS011;4998;51.024;13.828;2023-08-24T03:26:25;3.13;;;2.93;;
9918;SDS011;4998;51.024;13.828;2023-08-24T03:28:54;3.80;;;3.07;;
9918;SDS011;4998;51.024;13.828;2023-08-24T03:31:20;3.40;;;3.10;;
9918;SDS011;4998;51.024;13.828;2023-08-24T03:33:47;3.90;;;3.50;;
9918;SDS011;4998;51.024;13.828;2023-08-24T03:36:14;3.80;;;3.50;;
9918;SDS011;4998;51.024;13.828;2023-08-24T03:38:41;3.70;;;3.40;;
9918;SDS011;4998;51.024;13.828;2023-08-24T03:41:08;4.07;;;3.70;;
9918;SDS011;4998;51.024;13.828;2023-08-24T03:43:35;3.73;;;3.43;;
9918;SDS011;4998;51.024;13.828;2023-08-24T03:46:04;3.60;;;3.30;;
9918;SDS011;4998;51.024;13.828;2023-08-24T03:48:31;3.50;;;3.30;;
9918;SDS011;4998;51.024;13.828;2023-08-24T03:50:58;5.37;;;3.60;;
9918;SDS011;4998;51.024;13.828;2023-08-24T03:53:25;3.33;;;3.13;;
9918;SDS011;4998;51.024;13.828;2023-08-24T03:55:53;4.17;;;3.57;;
9918;SDS011;4998;51.024;13.828;2023-08-24T03:58:20;5.67;;;3.47;;
9918;SDS011;4998;51.024;13.828;2023-08-24T04:00:47;4.43;;;3.87;;
9918;SDS011;4998;51.024;13.828;2023-08-24T04:03:16;4.03;;;3.67;;
9918;SDS011;4998;51.024;13.828;2023-08-24T04:05:43;3.57;;;3.30;;
9918;SDS011;4998;51.024;13.828;2023-08-24T04:08:10;3.80;;;3.40;;
9918;SDS011;4998;51.024;13.828;2023-08-24T04:10:37;3.87;;;3.53;;
9918;SDS011;4998;51.024;13.828;2023-08-24T04:13:04;3.60;;;3.40;;
9918;SDS011;4998;51.024;13.828;2023-08-24T04:15:31;3.80;;;3.47;;
9918;SDS011;4998;51.024;13.828;2023-08-24T04:17:58;9.97;;;3.53;;
9918;SDS011;4998;51.024;13.828;2023-08-24T04:20:27;5.00;;;3.50;;
9918;SDS011;4998;51.024;13.828;2023-08-24T04:22:54;3.40;;;3.20;;
9918;SDS011;4998;51.024;13.828;2023-08-24T04:25:21;3.30;;;3.10;;
9918;SDS011;4998;51.024;13.828;2023-08-24T04:27:48;3.93;;;3.63;;
9918;SDS011;4998;51.024;13.828;2023-08-24T04:30:15;3.33;;;3.03;;
9918;SDS011;4998;51.024;13.828;2023-08-24T04:32:42;4.20;;;3.80;;
9918;SDS011;4998;51.024;13.828;2023-08-24T04:35:09;3.80;;;3.50;;
9918;SDS011;4998;51.024;13.828;2023-08-24T04:37:38;4.10;;;3.63;;
9918;SDS011;4998;51.024;13.828;2023-08-24T04:40:05;3.77;;;3.47;;
9918;SDS011;4998;51.024;13.828;2023-08-24T04:42:33;3.87;;;3.57;;
9918;SDS011;4998;51.024;13.828;2023-08-24T04:45:00;7.10;;;3.50;;
9918;SDS011;4998;51.024;13.828;2023-08-24T04:47:27;4.33;;;3.20;;
9918;SDS011;4998;51.024;13.828;2023-08-24T04:49:54;6.07;;;3.60;;
9918;SDS011;4998;51.024;13.828;2023-08-24T04:52:21;3.40;;;3.20;;
9918;SDS011;4998;51.024;13.828;2023-08-24T04:54:50;7.03;;;4.27;;
9918;SDS011;4998;51.024;13.828;2023-08-24T04:57:17;4.50;;;3.30;;
9918;SDS011;4998;51.024;13.828;2023-08-24T04:59:44;3.70;;;3.40;;
9918;SDS011;4998;51.024;13.828;2023-08-24T05:02:11;4.40;;;3.20;;
9918;SDS011;4998;51.024;13.828;2023-08-24T05:04:39;4.20;;;3.80;;
9918;SDS011;4998;51.024;13.828;2023-08-24T05:07:06;3.80;;;3.50;;
9918;SDS011;4998;51.024;13.828;2023-08-24T05:09:33;4.07;;;3.30;;
9918;SDS011;4998;51.024;13.828;2023-08-24T05:12:01;3.80;;;3.50;;
9918;SDS011;4998;51.024;13.828;2023-08-24T05:14:28;3.50;;;3.20;;
9918;SDS011;4998;51.024;13.828;2023-08-24T05:16:55;3.47;;;3.27;;
9918;SDS011;4998;51.024;13.828;2023-08-24T05:19:22;3.20;;;3.00;;
9918;SDS011;4998;51.024;13.828;2023-08-24T05:21:49;3.67;;;3.37;;
9918;SDS011;4998;51.024;13.828;2023-08-24T05:24:16;3.73;;;3.43;;
9918;SDS011;4998;51.024;13.828;2023-08-24T05:26:43;3.80;;;3.10;;
9918;SDS011;4998;51.024;13.828;2023-08-24T05:29:11;4.77;;;3.30;;
9918;SDS011;4998;51.024;13.828;2023-08-24T05:31:38;3.90;;;3.10;;
9918;SDS011;4998;51.024;13.828;2023-08-24T05:34:05;3.40;;;3.20;;
9918;SDS011;4998;51.024;13.828;2023-08-24T05:36:32;3.67;;;3.47;;
9918;SDS011;4998;51.024;13.828;2023-08-24T05:38:59;3.33;;;3.13;;
9918;SDS011;4998;51.024;13.828;2023-08-24T05:41:26;3.70;;;3.30;;
9918;SDS011;4998;51.024;13.828;2023-08-24T05:43:53;3.33;;;3.03;;
9918;SDS011;4998;51.024;13.828;2023-08-24T05:46:23;3.30;;;3.00;;
9918;SDS011;4998;51.024;13.828;2023-08-24T05:48:50;4.10;;;3.60;;
9918;SDS011;4998;51.024;13.828;2023-08-24T05:51:17;3.37;;;3.10;;
9918;SDS011;4998;51.024;13.828;2023-08-24T05:53:44;3.50;;;3.20;;
9918;SDS011;4998;51.024;13.828;2023-08-24T05:56:11;8.80;;;3.23;;
9918;SDS011;4998;51.024;13.828;2023-08-24T05:58:38;3.30;;;2.90;;
9918;SDS011;4998;51.024;13.828;2023-08-24T06:01:05;3.50;;;3.20;;
9918;SDS011;4998;51.024;13.828;2023-08-24T06:03:34;3.33;;;3.13;;
9918;SDS011;4998;51.024;13.828;2023-08-24T06:06:02;5.17;;;2.97;;
9918;SDS011;4998;51.024;13.828;2023-08-24T06:08:29;3.30;;;3.10;;
9918;SDS011;4998;51.024;13.828;2023-08-24T06:10:56;3.20;;;3.00;;
9918;SDS011;4998;51.024;13.828;2023-08-24T06:13:23;3.60;;;3.30;;
9918;SDS011;4998;51.024;13.828;2023-08-24T06:15:50;4.60;;;2.93;;
9918;SDS011;4998;51.024;13.828;2023-08-24T06:18:17;3.00;;;2.80;;
9918;SDS011;4998;51.024;13.828;2023-08-24T06:20:46;3.93;;;3.13;;
9918;SDS011;4998;51.024;13.828;2023-08-24T06:23:14;3.53;;;2.77;;
9918;SDS011;4998;51.024;13.828;2023-08-24T06:25:42;4.67;;;3.17;;
9918;SDS011;4998;51.024;13.828;2023-08-24T06:28:09;2.67;;;2.43;;
9918;SDS011;4998;51.024;13.828;2023-08-24T06:30:37;2.80;;;2.60;;
9918;SDS011;4998;51.024;13.828;2023-08-24T06:33:04;4.43;;;3.00;;
9918;SDS011;4998;51.024;13.828;2023-08-24T06:35:32;3.27;;;2.63;;
9918;SDS011;4998;51.024;13.828;2023-08-24T06:38:01;3.43;;;2.93;;
9918;SDS011;4998;51.024;13.828;2023-08-24T06:40:29;4.43;;;2.80;;
9918;SDS011;4998;51.024;13.828;2023-08-24T06:42:56;7.00;;;2.90;;
9918;SDS011;4998;51.024;13.828;2023-08-24T06:45:23;3.30;;;2.73;;
9918;SDS011;4998;51.024;13.828;2023-08-24T06:47:50;3.57;;;2.70;;
9918;SDS011;4998;51.024;13.828;2023-08-24T06:50:17;2.70;;;2.50;;
9918;SDS011;4998;51.024;13.828;2023-08-24T06:52:45;3.50;;;2.67;;
9918;SDS011;4998;51.024;13.828;2023-08-24T06:55:13;2.47;;;2.37;;
9918;SDS011;4998;51.024;13.828;2023-08-24T06:57:41;2.87;;;2.60;;
9918;SDS011;4998;51.024;13.828;2023-08-24T07:00:08;3.80;;;2.60;;
9918;SDS011;4998;51.024;13.828;2023-08-24T07:02:40;3.07;;;2.77;;
9918;SDS011;4998;51.024;13.828;2023-08-24T07:05:07;3.10;;;2.80;;
9918;SDS011;4998;51.024;13.828;2023-08-24T07:07:34;4.07;;;2.73;;
9918;SDS011;4998;51.024;13.828;2023-08-24T07:10:01;2.57;;;2.37;;
9918;SDS011;4998;51.024;13.828;2023-08-24T07:12:30;2.70;;;2.50;;
9918;SDS011;4998;51.024;13.828;2023-08-24T07:14:57;2.60;;;2.20;;
9918;SDS011;4998;51.024;13.828;2023-08-24T07:17:24;2.67;;;2.43;;
9918;SDS011;4998;51.024;13.828;2023-08-24T07:19:51;2.77;;;2.47;;
9918;SDS011;4998;51.024;13.828;2023-08-24T07:22:19;2.90;;;2.67;;
9918;SDS011;4998;51.024;13.828;2023-08-24T07:24:46;2.60;;;2.40;;
9918;SDS011;4998;51.024;13.828;2023-08-24T07:27:17;2.50;;;2.40;;
9918;SDS011;4998;51.024;13.828;2023-08-24T07:29:45;2.47;;;2.33;;
9918;SDS011;4998;51.024;13.828;2023-08-24T07:32:12;2.87;;;2.67;;
9918;SDS011;4998;51.024;13.828;2023-08-24T07:34:39;4.37;;;2.70;;
9918;SDS011;4998;51.024;13.828;2023-08-24T07:37:06;2.50;;;2.30;;
9918;SDS011;4998;51.024;13.828;2023-08-24T07:39:33;2.80;;;2.60;;
9918;SDS011;4998;51.024;13.828;2023-08-24T07:42:00;3.73;;;2.60;;
9918;SDS011;4998;51.024;13.828;2023-08-24T07:44:27;2.50;;;2.30;;
9918;SDS011;4998;51.024;13.828;2023-08-24T07:46:56;3.30;;;3.07;;
9918;SDS011;4998;51.024;13.828;2023-08-24T07:49:23;2.17;;;2.07;;
9918;SDS011;4998;51.024;13.828;2023-08-24T07:51:50;2.70;;;2.50;;
9918;SDS011;4998;51.024;13.828;2023-08-24T07:54:18;3.23;;;2.93;;
9918;SDS011;4998;51.024;13.828;2023-08-24T07:56:45;2.40;;;2.30;;
9918;SDS011;4998;51.024;13.828;2023-08-24T07:59:12;2.30;;;2.20;;
9918;SDS011;4998;51.024;13.828;2023-08-24T08:01:39;2.30;;;2.20;;
9918;SDS011;4998;51.024;13.828;2023-08-24T08:04:07;2.33;;;2.13;;
9918;SDS011;4998;51.024;13.828;2023-08-24T08:06:34;3.33;;;2.60;;
9918;SDS011;4998;51.024;13.828;2023-08-24T08:09:01;2.57;;;2.30;;
9918;SDS011;4998;51.024;13.828;2023-08-24T08:11:29;2.60;;;2.30;;
9918;SDS011;4998;51.024;13.828;2023-08-24T08:13:56;3.23;;;2.37;;
9918;SDS011;4998;51.024;13.828;2023-08-24T08:16:23;2.93;;;2.60;;
9918;SDS011;4998;51.024;13.828;2023-08-24T08:18:50;3.30;;;2.73;;
9918;SDS011;4998;51.024;13.828;2023-08-24T08:21:18;2.83;;;2.43;;
9918;SDS011;4998;51.024;13.828;2023-08-24T08:23:45;3.43;;;2.30;;
9918;SDS011;4998;51.024;13.828;2023-08-24T08:26:12;3.03;;;2.30;;
9918;SDS011;4998;51.024;13.828;2023-08-24T08:28:40;2.57;;;2.37;;
9918;SDS011;4998;51.024;13.828;2023-08-24T08:31:07;2.50;;;2.30;;
9918;SDS011;4998;51.024;13.828;2023-08-24T08:33:34;2.40;;;2.20;;
9918;SDS011;4998;51.024;13.828;2023-08-24T08:36:01;3.50;;;2.43;;
9918;SDS011;4998;51.024;13.828;2023-08-24T08:38:29;3.60;;;2.20;;
9918;SDS011;4998;51.024;13.828;2023-08-24T08:40:57;2.63;;;1.97;;
9918;SDS011;4998;51.024;13.828;2023-08-24T08:43:29;2.67;;;2.37;;
9918;SDS011;4998;51.024;13.828;2023-08-24T08:45:56;7.83;;;2.40;;
9918;SDS011;4998;51.024;13.828;2023-08-24T08:48:24;2.20;;;2.10;;
9918;SDS011;4998;51.024;13.828;2023-08-24T08:50:52;3.43;;;2.10;;
9918;SDS011;4998;51.024;13.828;2023-08-24T08:53:21;3.37;;;2.27;;
9918;SDS011;4998;51.024;13.828;2023-08-24T08:55:51;2.77;;;2.20;;
9918;SDS011;4998;51.024;13.828;2023-08-24T08:58:19;2.17;;;2.00;;
9918;SDS011;4998;51.024;13.828;2023-08-24T09:00:47;2.17;;;1.97;;
9918;SDS011;4998;51.024;13.828;2023-08-24T09:03:16;2.00;;;1.90;;
9918;SDS011;4998;51.024;13.828;2023-08-24T09:05:44;2.10;;;1.83;;
9918;SDS011;4998;51.024;13.828;2023-08-24T09:08:13;3.10;;;1.70;;
9918;SDS011;4998;51.024;13.828;2023-08-24T09:10:42;2.20;;;2.00;;
9918;SDS011;4998;51.024;13.828;2023-08-24T09:13:10;2.23;;;2.03;;
9918;SDS011;4998;51.024;13.828;2023-08-24T09:15:38;2.90;;;1.97;;
9918;SDS011;4998;51.024;13.828;2023-08-24T09:18:05;2.87;;;2.40;;
9918;SDS011;4998;51.024;13.828;2023-08-24T09:20:33;2.70;;;2.17;;
9918;SDS011;4998;51.024;13.828;2023-08-24T09:23:00;2.30;;;1.93;;
9918;SDS011;4998;51.024;13.828;2023-08-24T09:25:28;2.53;;;2.27;;
9918;SDS011;4998;51.024;13.828;2023-08-24T09:27:58;2.30;;;2.10;;
9918;SDS011;4998;51.024;13.828;2023-08-24T09:30:34;2.70;;;2.20;;
9918;SDS011;4998;51.024;13.828;2023-08-24T09:33:02;2.13;;;2.03;;
9918;SDS011;4998;51.024;13.828;2023-08-24T09:35:35;2.17;;;2.00;;
9918;SDS011;4998;51.024;13.828;2023-08-24T09:38:15;5.53;;;2.27;;
9918;SDS011;4998;51.024;13.828;2023-08-24T09:40:44;2.17;;;2.00;;
9918;SDS011;4998;51.024;13.828;2023-08-24T09:43:13;2.00;;;1.90;;
9918;SDS011;4998;51.024;13.828;2023-08-24T09:45:48;2.30;;;1.93;;
9918;SDS011;4998;51.024;13.828;2023-08-24T09:48:16;1.63;;;1.53;;
9918;SDS011;4998;51.024;13.828;2023-08-24T09:50:44;2.33;;;1.97;;
9918;SDS011;4998;51.024;13.828;2023-08-24T09:53:11;2.70;;;2.20;;
9918;SDS011;4998;51.024;13.828;2023-08-24T09:55:48;2.13;;;1.93;;
9918;SDS011;4998;51.024;13.828;2023-08-24T09:58:21;2.50;;;2.13;;
9918;SDS011;4998;51.024;13.828;2023-08-24T10:00:50;2.37;;;2.17;;
9918;SDS011;4998;51.024;13.828;2023-08-24T10:03:18;2.17;;;1.97;;
9918;SDS011;4998;51.024;13.828;2023-08-24T10:05:50;2.23;;;2.03;;
9918;SDS011;4998;51.024;13.828;2023-08-24T10:08:20;2.10;;;1.90;;
9918;SDS011;4998;51.024;13.828;2023-08-24T10:10:49;4.30;;;1.80;;
9918;SDS011;4998;51.024;13.828;2023-08-24T10:13:23;2.20;;;2.00;;
9918;SDS011;4998;51.024;13.828;2023-08-24T10:15:57;2.10;;;1.90;;
9918;SDS011;4998;51.024;13.828;2023-08-24T10:18:25;8.73;;;2.30;;
9918;SDS011;4998;51.024;13.828;2023-08-24T10:20:52;2.27;;;2.10;;
9918;SDS011;4998;51.024;13.828;2023-08-24T10:23:20;2.40;;;2.20;;
9918;SDS011;4998;51.024;13.828;2023-08-24T10:25:48;2.30;;;2.10;;
9918;SDS011;4998;51.024;13.828;2023-08-24T10:28:17;3.10;;;2.10;;
9918;SDS011;4998;51.024;13.828;2023-08-24T10:30:46;2.00;;;1.90;;
9918;SDS011;4998;51.024;13.828;2023-08-24T10:33:16;1.80;;;1.70;;
9918;SDS011;4998;51.024;13.828;2023-08-24T10:35:43;3.10;;;2.20;;
9918;SDS011;4998;51.024;13.828;2023-08-24T10:38:22;1.90;;;1.80;;
9918;SDS011;4998;51.024;13.828;2023-08-24T10:40:53;2.37;;;2.17;;
9918;SDS011;4998;51.024;13.828;2023-08-24T10:43:20;1.93;;;1.83;;
9918;SDS011;4998;51.024;13.828;2023-08-24T10:45:54;2.10;;;2.00;;
9918;SDS011;4998;51.024;13.828;2023-08-24T10:48:24;2.60;;;2.40;;
9918;SDS011;4998;51.024;13.828;2023-08-24T10:53:45;2.30;;;2.10;;
9918;SDS011;4998;51.024;13.828;2023-08-24T10:56:13;2.10;;;1.90;;
9918;SDS011;4998;51.024;13.828;2023-08-24T10:58:41;2.00;;;1.90;;
9918;SDS011;4998;51.024;13.828;2023-08-24T11:01:14;3.97;;;2.07;;
9918;SDS011;4998;51.024;13.828;2023-08-24T11:03:46;2.43;;;2.23;;
9918;SDS011;4998;51.024;13.828;2023-08-24T11:06:19;1.90;;;1.80;;
9918;SDS011;4998;51.024;13.828;2023-08-24T11:08:48;2.97;;;2.30;;
9918;SDS011;4998;51.024;13.828;2023-08-24T11:11:19;2.23;;;1.93;;
9918;SDS011;4998;51.024;13.828;2023-08-24T11:16:42;2.33;;;2.13;;
9918;SDS011;4998;51.024;13.828;2023-08-24T11:19:11;2.10;;;2.00;;
9918;SDS011;4998;51.024;13.828;2023-08-24T11:21:39;3.60;;;2.37;;
9918;SDS011;4998;51.024;13.828;2023-08-24T11:24:06;3.83;;;2.30;;
9918;SDS011;4998;51.024;13.828;2023-08-24T11:26:35;2.33;;;2.13;;
9918;SDS011;4998;51.024;13.828;2023-08-24T11:29:07;2.00;;;1.90;;
9918;SDS011;4998;51.024;13.828;2023-08-24T11:31:34;2.30;;;2.13;;
9918;SDS011;4998;51.024;13.828;2023-08-24T11:34:01;2.30;;;2.10;;
9918;SDS011;4998;51.024;13.828;2023-08-24T11:36:31;2.53;;;2.20;;
9918;SDS011;4998;51.024;13.828;2023-08-24T11:39:07;2.10;;;1.93;;
9918;SDS011;4998;51.024;13.828;2023-08-24T11:41:40;3.17;;;1.90;;
9918;SDS011;4998;51.024;13.828;2023-08-24T11:44:07;2.40;;;2.03;;
9918;SDS011;4998;51.024;13.828;2023-08-24T11:46:34;2.50;;;2.27;;
9918;SDS011;4998;51.024;13.828;2023-08-24T11:49:04;2.57;;;2.20;;
9918;SDS011;4998;51.024;13.828;2023-08-24T11:51:33;2.70;;;2.27;;
9918;SDS011;4998;51.024;13.828;2023-08-24T11:54:00;2.87;;;2.00;;
9918;SDS011;4998;51.024;13.828;2023-08-24T11:56:27;7.90;;;2.87;;
9918;SDS011;4998;51.024;13.828;2023-08-24T11:58:54;2.53;;;2.33;;
9918;SDS011;4998;51.024;13.828;2023-08-24T12:01:21;2.40;;;2.20;;
9918;SDS011;4998;51.024;13.828;2023-08-24T12:03:49;7.13;;;2.10;;
9918;SDS011;4998;51.024;13.828;2023-08-24T12:06:17;2.90;;;2.30;;
9918;SDS011;4998;51.024;13.828;2023-08-24T12:08:46;2.60;;;2.10;;
9918;SDS011;4998;51.024;13.828;2023-08-24T12:11:16;2.23;;;2.03;;
9918;SDS011;4998;51.024;13.828;2023-08-24T12:13:45;1.80;;;1.70;;
9918;SDS011;4998;51.024;13.828;2023-08-24T12:16:13;2.00;;;1.90;;
9918;SDS011;4998;51.024;13.828;2023-08-24T12:18:49;3.13;;;2.27;;
9918;SDS011;4998;51.024;13.828;2023-08-24T12:21:17;3.80;;;1.90;;
9918;SDS011;4998;51.024;13.828;2023-08-24T12:23:55;2.77;;;1.90;;
9918;SDS011;4998;51.024;13.828;2023-08-24T12:26:23;2.67;;;2.43;;
9918;SDS011;4998;51.024;13.828;2023-08-24T12:28:50;6.20;;;1.93;;
9918;SDS011;4998;51.024;13.828;2023-08-24T12:31:18;2.40;;;1.83;;
9918;SDS011;4998;51.024;13.828;2023-08-24T12:33:47;3.03;;;2.20;;
9918;SDS011;4998;51.024;13.828;2023-08-24T12:36:25;2.63;;;2.00;;
9918;SDS011;4998;51.024;13.828;2023-08-24T12:38:52;2.20;;;2.00;;
9918;SDS011;4998;51.024;13.828;2023-08-24T12:41:20;2.80;;;2.30;;
9918;SDS011;4998;51.024;13.828;2023-08-24T12:43:48;2.63;;;2.17;;
9918;SDS011;4998;51.024;13.828;2023-08-24T12:46:16;2.23;;;2.03;;
9918;SDS011;4998;51.024;13.828;2023-08-24T12:48:43;2.60;;;2.40;;
9918;SDS011;4998;51.024;13.828;2023-08-24T12:51:10;2.97;;;2.10;;
9918;SDS011;4998;51.024;13.828;2023-08-24T12:53:37;2.10;;;2.00;;
9918;SDS011;4998;51.024;13.828;2023-08-24T12:56:04;1.97;;;1.87;;
9918;SDS011;4998;51.024;13.828;2023-08-24T12:58:32;2.53;;;2.07;;
9918;SDS011;4998;51.024;13.828;2023-08-24T13:00:59;2.40;;;2.10;;
9918;SDS011;4998;51.024;13.828;2023-08-24T13:03:27;3.73;;;2.90;;
9918;SDS011;4998;51.024;13.828;2023-08-24T13:05:54;2.00;;;1.90;;
9918;SDS011;4998;51.024;13.828;2023-08-24T13:08:21;3.20;;;2.27;;
9918;SDS011;4998;51.024;13.828;2023-08-24T13:10:49;2.43;;;2.27;;
9918;SDS011;4998;51.024;13.828;2023-08-24T13:13:17;2.50;;;2.30;;
9918;SDS011;4998;51.024;13.828;2023-08-24T13:15:47;3.43;;;2.33;;
9918;SDS011;4998;51.024;13.828;2023-08-24T13:18:15;2.73;;;1.90;;
9918;SDS011;4998;51.024;13.828;2023-08-24T13:20:42;2.30;;;2.10;;
9918;SDS011;4998;51.024;13.828;2023-08-24T13:23:09;2.20;;;2.07;;
9918;SDS011;4998;51.024;13.828;2023-08-24T13:25:36;2.67;;;2.47;;
9918;SDS011;4998;51.024;13.828;2023-08-24T13:28:03;4.73;;;2.50;;
9918;SDS011;4998;51.024;13.828;2023-08-24T13:30:31;2.17;;;1.97;;
9918;SDS011;4998;51.024;13.828;2023-08-24T13:32:59;3.20;;;2.10;;
9918;SDS011;4998;51.024;13.828;2023-08-24T13:35:26;2.27;;;2.10;;
9918;SDS011;4998;51.024;13.828;2023-08-24T13:37:53;4.10;;;2.47;;
9918;SDS011;4998;51.024;13.828;2023-08-24T13:40:20;3.00;;;2.20;;
9918;SDS011;4998;51.024;13.828;2023-08-24T13:42:47;3.17;;;2.30;;
9918;SDS011;4998;51.024;13.828;2023-08-24T13:45:14;2.50;;;2.30;;
9918;SDS011;4998;51.024;13.828;2023-08-24T13:47:42;2.50;;;2.30;;
9918;SDS011;4998;51.024;13.828;2023-08-24T13:50:11;2.73;;;2.53;;
9918;SDS011;4998;51.024;13.828;2023-08-24T13:52:38;2.70;;;2.30;;
9918;SDS011;4998;51.024;13.828;2023-08-24T13:55:05;2.30;;;2.10;;
9918;SDS011;4998;51.024;13.828;2023-08-24T13:57:32;2.73;;;2.53;;
9918;SDS011;4998;51.024;13.828;2023-08-24T13:59:59;2.53;;;2.33;;
9918;SDS011;4998;51.024;13.828;2023-08-24T14:02:29;4.10;;;2.80;;
9918;SDS011;4998;51.024;13.828;2023-08-24T14:04:56;3.23;;;2.37;;
9918;SDS011;4998;51.024;13.828;2023-08-24T14:07:24;2.77;;;2.43;;
9918;SDS011;4998;51.024;13.828;2023-08-24T14:09:51;3.00;;;2.80;;
9918;SDS011;4998;51.024;13.828;2023-08-24T14:12:18;4.60;;;4.20;;
9918;SDS011;4998;51.024;13.828;2023-08-24T14:14:45;5.57;;;4.33;;
9918;SDS011;4998;51.024;13.828;2023-08-24T14:17:12;3.33;;;3.03;;
9918;SDS011;4998;51.024;13.828;2023-08-24T14:19:39;3.03;;;2.63;;
9918;SDS011;4998;51.024;13.828;2023-08-24T14:22:06;3.17;;;2.87;;
9918;SDS011;4998;51.024;13.828;2023-08-24T14:24:35;7.37;;;3.00;;
9918;SDS011;4998;51.024;13.828;2023-08-24T14:27:02;3.87;;;2.33;;
9918;SDS011;4998;51.024;13.828;2023-08-24T14:29:29;2.93;;;2.60;;
9918;SDS011;4998;51.024;13.828;2023-08-24T14:31:56;3.33;;;2.90;;
9918;SDS011;4998;51.024;13.828;2023-08-24T14:34:23;2.80;;;2.43;;
9918;SDS011;4998;51.024;13.828;2023-08-24T14:36:50;3.10;;;2.67;;
9918;SDS011;4998;51.024;13.828;2023-08-24T14:39:17;3.40;;;2.50;;
9918;SDS011;4998;51.024;13.828;2023-08-24T14:41:47;3.27;;;2.60;;
9918;SDS011;4998;51.024;13.828;2023-08-24T14:44:13;2.63;;;2.43;;
9918;SDS011;4998;51.024;13.828;2023-08-24T14:46:40;2.83;;;2.40;;
9918;SDS011;4998;51.024;13.828;2023-08-24T14:49:07;4.53;;;2.60;;
9918;SDS011;4998;51.024;13.828;2023-08-24T14:51:34;2.53;;;2.33;;
9918;SDS011;4998;51.024;13.828;2023-08-24T14:54:01;3.17;;;2.63;;
9918;SDS011;4998;51.024;13.828;2023-08-24T14:56:28;2.70;;;2.50;;
9918;SDS011;4998;51.024;13.828;2023-08-24T14:58:57;2.40;;;2.30;;
9918;SDS011;4998;51.024;13.828;2023-08-24T15:01:24;2.67;;;2.47;;
9918;SDS011;4998;51.024;13.828;2023-08-24T15:03:51;3.03;;;2.50;;
9918;SDS011;4998;51.024;13.828;2023-08-24T15:06:18;3.30;;;2.70;;
9918;SDS011;4998;51.024;13.828;2023-08-24T15:08:45;2.70;;;2.30;;
9918;SDS011;4998;51.024;13.828;2023-08-24T15:11:13;3.00;;;2.73;;